createdAt,value
2019-05-11T00:01:17.671Z,9.95
2019-05-11T00:03:47.243Z,9.90
2019-05-11T00:06:16.961Z,9.89
2019-05-11T00:08:46.530Z,9.96
2019-05-11T00:11:16.136Z,9.98
2019-05-11T00:13:45.721Z,9.91
2019-05-11T00:16:18.937Z,9.91
2019-05-11T00:18:46.636Z,9.86
2019-05-11T00:21:16.255Z,9.82
2019-05-11T00:23:45.828Z,9.90
2019-05-11T00:26:15.356Z,9.89
2019-05-11T00:28:44.959Z,9.90
2019-05-11T00:31:14.514Z,10.01
2019-05-11T00:33:44.090Z,9.97
2019-05-11T00:36:13.601Z,9.95
2019-05-11T00:38:43.196Z,9.94
2019-05-11T00:41:12.722Z,9.96
2019-05-11T00:43:42.308Z,10.03
2019-05-11T00:46:11.832Z,10.05
2019-05-11T00:48:41.480Z,10.08
2019-05-11T00:51:11.015Z,10.05
2019-05-11T00:53:40.596Z,9.98
2019-05-11T00:56:10.132Z,9.92
2019-05-11T00:58:39.741Z,9.85
2019-05-11T01:01:09.266Z,9.81
2019-05-11T01:03:38.829Z,9.71
2019-05-11T01:06:08.361Z,9.68
2019-05-11T01:08:37.934Z,9.65
2019-05-11T01:11:07.478Z,9.66
2019-05-11T01:13:37.047Z,9.69
2019-05-11T01:16:06.584Z,9.67
2019-05-11T01:18:36.141Z,9.64
2019-05-11T01:21:05.804Z,9.65
2019-05-11T01:23:35.370Z,9.65
2019-05-11T01:26:04.903Z,9.65
2019-05-11T01:28:34.551Z,9.66
2019-05-11T01:31:04.130Z,9.71
2019-05-11T01:33:33.714Z,9.72
2019-05-11T01:36:03.338Z,9.61
2019-05-11T01:38:32.921Z,9.54
2019-05-11T01:41:02.457Z,9.42
2019-05-11T01:43:32.013Z,9.35
2019-05-11T01:46:01.605Z,9.25
2019-05-11T01:48:31.174Z,9.20
2019-05-11T01:51:00.702Z,9.18
2019-05-11T01:53:30.318Z,9.16
2019-05-11T01:55:59.840Z,9.12
2019-05-11T01:58:29.418Z,9.08
2019-05-11T02:00:58.941Z,9.06
2019-05-11T02:03:28.511Z,9.03
2019-05-11T02:05:58.043Z,9.11
2019-05-11T02:08:27.817Z,9.12
2019-05-11T02:10:57.406Z,9.16
2019-05-11T02:13:26.989Z,9.20
2019-05-11T02:15:56.527Z,9.26
2019-05-11T02:18:26.111Z,9.33
2019-05-11T02:20:55.642Z,9.34
2019-05-11T02:23:25.211Z,9.32
2019-05-11T02:25:54.775Z,9.30
2019-05-11T02:28:24.345Z,9.20
2019-05-11T02:30:53.994Z,9.12
2019-05-11T02:33:23.577Z,9.09
2019-05-11T02:35:53.151Z,9.07
2019-05-11T02:38:22.718Z,9.04
2019-05-11T02:40:52.253Z,9.02
2019-05-11T02:43:21.887Z,8.98
2019-05-11T02:45:51.414Z,8.96
2019-05-11T02:48:21.043Z,8.93
2019-05-11T02:50:50.850Z,8.91
2019-05-11T02:53:21.026Z,8.90
2019-05-11T02:55:56.486Z,8.84
2019-05-11T02:58:25.790Z,8.80
2019-05-11T03:00:55.293Z,8.83
2019-05-11T03:03:24.862Z,8.89
2019-05-11T03:05:54.357Z,8.77
2019-05-11T03:08:23.944Z,8.63
2019-05-11T03:10:53.447Z,8.68
2019-05-11T03:13:23.103Z,8.63
2019-05-11T03:15:52.628Z,8.63
2019-05-11T03:18:22.825Z,8.74
2019-05-11T03:20:52.345Z,8.75
2019-05-11T03:23:21.913Z,8.79
2019-05-11T03:25:51.401Z,8.74
2019-05-11T03:28:20.981Z,8.64
2019-05-11T03:30:50.642Z,8.64
2019-05-11T03:33:20.273Z,8.68
2019-05-11T03:35:49.834Z,8.70
2019-05-11T03:38:19.413Z,8.75
2019-05-11T03:40:48.912Z,8.72
2019-05-11T03:43:18.482Z,8.78
2019-05-11T03:45:47.975Z,8.82
2019-05-11T03:48:17.549Z,8.84
2019-05-11T03:50:47.037Z,8.81
2019-05-11T03:53:16.626Z,8.89
2019-05-11T03:55:46.135Z,8.91
2019-05-11T03:58:15.731Z,8.90
2019-05-11T04:00:45.220Z,8.90
2019-05-11T04:03:14.855Z,9.05
2019-05-11T04:05:44.290Z,7.84
2019-05-11T04:08:13.789Z,9.16
2019-05-11T04:10:43.192Z,9.25
2019-05-11T04:13:12.528Z,9.41
2019-05-11T04:15:41.910Z,9.54
2019-05-11T04:18:11.238Z,9.55
2019-05-11T04:20:40.587Z,9.65
2019-05-11T04:23:09.914Z,9.72
2019-05-11T04:25:39.302Z,9.72
2019-05-11T04:28:08.621Z,9.86
2019-05-11T04:30:38.024Z,9.98
2019-05-11T04:33:07.387Z,10.05
2019-05-11T04:35:36.804Z,10.24
2019-05-11T04:38:06.120Z,10.43
2019-05-11T04:40:35.511Z,10.49
2019-05-11T04:43:04.817Z,10.98
2019-05-11T04:45:34.213Z,12.63
2019-05-11T04:48:03.557Z,13.94
2019-05-11T04:50:32.940Z,14.42
2019-05-11T04:53:02.285Z,14.54
2019-05-11T04:55:31.790Z,14.51
2019-05-11T04:58:01.125Z,14.60
2019-05-11T05:00:30.497Z,14.55
2019-05-11T05:02:59.814Z,14.43
2019-05-11T05:05:29.225Z,14.58
2019-05-11T05:08:09.255Z,14.72
2019-05-11T05:10:29.633Z,14.82
2019-05-11T05:13:10.339Z,15.21
2019-05-11T05:15:30.082Z,16.48
2019-05-11T05:17:59.442Z,17.13
2019-05-11T05:20:28.850Z,17.34
2019-05-11T05:22:58.239Z,17.49
2019-05-11T05:25:27.624Z,17.82
2019-05-11T05:27:56.964Z,18.14
2019-05-11T05:30:26.417Z,18.53
2019-05-11T05:33:00.959Z,18.84
2019-05-11T05:35:36.455Z,18.27
2019-05-11T05:38:05.419Z,18.33
2019-05-11T05:40:34.900Z,18.89
2019-05-11T05:43:04.226Z,19.62
2019-05-11T05:45:33.626Z,19.86
2019-05-11T05:48:02.963Z,19.78
2019-05-11T05:50:32.310Z,19.80
2019-05-11T05:53:01.693Z,20.59
2019-05-11T05:55:31.063Z,20.05
2019-05-11T05:58:00.386Z,20.49
2019-05-11T06:00:29.690Z,20.76
2019-05-11T06:02:59.049Z,20.83
2019-05-11T06:05:28.377Z,21.01
2019-05-11T06:07:57.726Z,21.71
2019-05-11T06:10:27.054Z,22.07
2019-05-11T06:12:56.422Z,22.06
2019-05-11T06:15:25.787Z,21.97
2019-05-11T06:17:55.097Z,22.51
2019-05-11T06:20:24.432Z,22.55
2019-05-11T06:22:53.786Z,22.36
2019-05-11T06:25:23.144Z,21.96
2019-05-11T06:27:52.516Z,22.37
2019-05-11T06:30:21.976Z,22.66
2019-05-11T06:32:51.337Z,22.97
2019-05-11T06:35:22.705Z,22.66
2019-05-11T06:37:51.823Z,21.82
2019-05-11T06:40:21.167Z,22.13
2019-05-11T06:42:51.295Z,21.82
2019-05-11T06:45:20.695Z,21.86
2019-05-11T06:47:50.033Z,21.11
2019-05-11T06:50:20.166Z,20.84
2019-05-11T06:52:49.815Z,21.26
2019-05-11T06:55:19.155Z,21.47
2019-05-11T06:57:48.488Z,21.76
2019-05-11T07:00:18.120Z,22.08
2019-05-11T07:02:47.437Z,21.79
2019-05-11T07:05:16.792Z,21.72
2019-05-11T07:07:47.789Z,21.41
2019-05-11T07:10:17.432Z,21.02
2019-05-11T07:12:46.932Z,20.23
2019-05-11T07:15:16.417Z,20.59
2019-05-11T07:17:45.792Z,20.20
2019-05-11T07:20:15.282Z,20.16
2019-05-11T07:22:44.630Z,20.93
2019-05-11T07:25:13.954Z,22.01
2019-05-11T07:27:43.397Z,22.53
2019-05-11T07:30:12.823Z,23.19
2019-05-11T07:32:42.155Z,22.93
2019-05-11T07:35:11.504Z,22.49
2019-05-11T07:37:40.828Z,22.90
2019-05-11T07:40:10.627Z,22.97
2019-05-11T07:42:39.972Z,23.63
2019-05-11T07:45:09.706Z,23.36
2019-05-11T07:47:39.043Z,23.05
2019-05-11T07:50:08.711Z,22.61
2019-05-11T07:52:38.157Z,22.68
2019-05-11T07:55:08.662Z,22.35
2019-05-11T07:57:38.981Z,21.22
2019-05-11T08:00:09.423Z,20.09
2019-05-11T08:02:39.100Z,19.95
2019-05-11T08:05:08.960Z,19.96
2019-05-11T08:07:38.451Z,21.21
2019-05-11T08:10:08.961Z,22.16
2019-05-11T08:12:39.407Z,21.99
2019-05-11T08:15:13.353Z,20.88
2019-05-11T08:17:40.791Z,21.20
2019-05-11T08:20:10.329Z,21.94
2019-05-11T08:22:39.674Z,22.54
2019-05-11T08:25:09.415Z,21.46
2019-05-11T08:27:38.863Z,22.83
2019-05-11T08:30:09.762Z,22.93
2019-05-11T08:32:39.103Z,23.31
2019-05-11T08:35:08.984Z,23.41
2019-05-11T08:37:38.919Z,23.27
2019-05-11T08:40:08.830Z,23.62
2019-05-11T08:42:41.509Z,23.58
2019-05-11T08:45:20.027Z,24.08
2019-05-11T08:47:42.260Z,23.76
2019-05-11T08:50:15.272Z,23.55
2019-05-11T08:52:43.514Z,23.76
2019-05-11T08:55:13.057Z,23.85
2019-05-11T08:57:42.442Z,24.34
2019-05-11T09:00:14.975Z,23.59
2019-05-11T09:02:46.931Z,23.23
2019-05-11T09:05:18.492Z,22.63
2019-05-11T09:07:48.478Z,21.68
2019-05-11T09:10:18.727Z,21.01
2019-05-11T09:12:48.956Z,20.12
2019-05-11T09:15:32.439Z,19.92
2019-05-11T09:17:49.529Z,21.12
2019-05-11T09:20:19.046Z,22.63
2019-05-11T09:22:48.652Z,22.67
2019-05-11T09:25:18.497Z,21.81
2019-05-11T09:27:48.432Z,21.33
2019-05-11T09:30:18.698Z,20.83
2019-05-11T09:32:48.055Z,20.27
2019-05-11T09:35:18.891Z,20.24
2019-05-11T09:37:48.704Z,20.15
2019-05-11T09:40:18.500Z,20.30
2019-05-11T09:42:48.139Z,20.26
2019-05-11T09:45:18.771Z,20.24
2019-05-11T09:47:48.491Z,20.41
2019-05-11T09:50:18.134Z,20.17
2019-05-11T09:52:49.069Z,20.21
2019-05-11T09:55:19.200Z,21.58
2019-05-11T09:57:48.858Z,23.00
2019-05-11T10:00:18.904Z,23.83
2019-05-11T10:02:48.882Z,24.60
2019-05-11T10:05:18.964Z,25.08
2019-05-11T10:07:48.678Z,24.68
2019-05-11T10:10:18.771Z,23.13
2019-05-11T10:12:48.975Z,22.66
2019-05-11T10:15:19.806Z,22.16
2019-05-11T10:17:49.389Z,22.48
2019-05-11T10:20:18.687Z,22.07
2019-05-11T10:22:48.772Z,21.54
2019-05-11T10:25:18.469Z,21.23
2019-05-11T10:27:48.884Z,20.66
2019-05-11T10:30:19.014Z,20.41
2019-05-11T10:32:51.196Z,20.38
2019-05-11T10:35:20.874Z,21.26
2019-05-11T10:37:50.301Z,22.90
2019-05-11T10:40:19.672Z,24.69
2019-05-11T10:42:49.005Z,23.13
2019-05-11T10:45:18.403Z,21.89
2019-05-11T10:47:49.022Z,21.55
2019-05-11T10:50:18.859Z,21.83
2019-05-11T10:52:48.709Z,23.41
2019-05-11T10:55:19.299Z,24.44
2019-05-11T10:57:49.712Z,25.35
2019-05-11T11:00:19.674Z,25.49
2019-05-11T11:02:49.005Z,25.61
2019-05-11T11:05:18.999Z,24.52
2019-05-11T11:07:48.700Z,23.03
2019-05-11T11:10:18.429Z,22.74
2019-05-11T11:12:48.928Z,22.48
2019-05-11T11:15:18.613Z,23.79
2019-05-11T11:17:48.675Z,24.75
2019-05-11T11:20:18.768Z,24.43
2019-05-11T11:22:48.558Z,25.34
2019-05-11T11:25:18.221Z,26.68
2019-05-11T11:27:48.717Z,27.03
2019-05-11T11:30:18.876Z,27.19
2019-05-11T11:32:48.485Z,27.34
2019-05-11T11:35:18.736Z,26.69
2019-05-11T11:37:48.259Z,26.04
2019-05-11T11:40:18.341Z,24.65
2019-05-11T11:42:47.967Z,25.58
2019-05-11T11:45:18.320Z,26.14
2019-05-11T11:47:49.253Z,26.70
2019-05-11T11:50:19.715Z,24.46
2019-05-11T11:52:49.060Z,24.27
2019-05-11T11:55:18.785Z,24.50
2019-05-11T11:57:50.327Z,24.93
2019-05-11T12:00:20.234Z,25.85
2019-05-11T12:02:49.739Z,25.36
2019-05-11T12:05:19.322Z,25.72
2019-05-11T12:07:49.191Z,25.97
2019-05-11T12:10:18.866Z,23.85
2019-05-11T12:12:48.195Z,24.16
2019-05-11T12:15:17.963Z,23.76
2019-05-11T12:17:48.361Z,23.37
2019-05-11T12:20:18.446Z,23.27
2019-05-11T12:22:47.916Z,23.44
2019-05-11T12:25:18.519Z,23.72
2019-05-11T12:27:49.062Z,24.73
2019-05-11T12:30:18.785Z,24.78
2019-05-11T12:32:50.011Z,24.72
2019-05-11T12:35:20.068Z,24.15
2019-05-11T12:37:49.437Z,23.38
2019-05-11T12:40:18.975Z,22.62
2019-05-11T12:42:49.098Z,22.33
2019-05-11T12:45:19.028Z,22.08
2019-05-11T12:47:48.823Z,21.90
2019-05-11T12:50:20.144Z,21.95
2019-05-11T12:52:50.765Z,22.65
2019-05-11T12:55:20.917Z,22.78
2019-05-11T12:57:50.472Z,21.22
2019-05-11T13:00:20.274Z,22.97
2019-05-11T13:02:49.666Z,22.32
2019-05-11T13:05:19.158Z,22.18
2019-05-11T13:07:51.710Z,22.58
2019-05-11T13:10:21.142Z,22.51
2019-05-11T13:12:50.998Z,22.54
2019-05-11T13:15:20.368Z,22.52
2019-05-11T13:17:49.906Z,22.35
2019-05-11T13:20:20.638Z,22.56
2019-05-11T13:22:49.949Z,22.53
2019-05-11T13:25:19.359Z,22.69
2019-05-11T13:27:49.299Z,23.07
2019-05-11T13:30:19.771Z,23.66
2019-05-11T13:32:49.386Z,24.26
2019-05-11T13:35:18.843Z,24.96
2019-05-11T13:37:48.266Z,25.31
2019-05-11T13:40:20.341Z,23.79
2019-05-11T13:42:49.710Z,22.64
2019-05-11T13:45:19.130Z,22.34
2019-05-11T13:47:54.732Z,22.20
2019-05-11T13:50:19.631Z,22.09
2019-05-11T13:52:49.144Z,22.03
2019-05-11T13:55:18.581Z,21.77
2019-05-11T13:57:48.555Z,21.82
2019-05-11T14:00:18.389Z,21.82
2019-05-11T14:02:48.584Z,21.88
2019-05-11T14:05:18.318Z,22.06
2019-05-11T14:07:48.351Z,22.15
2019-05-11T14:10:18.316Z,22.09
2019-05-11T14:12:47.978Z,22.02
2019-05-11T14:15:18.759Z,21.95
2019-05-11T14:17:48.783Z,21.94
2019-05-11T14:20:19.356Z,21.97
2019-05-11T14:22:48.713Z,22.17
2019-05-11T14:25:18.784Z,22.33
2019-05-11T14:27:48.278Z,22.03
2019-05-11T14:30:19.151Z,22.00
2019-05-11T14:32:48.703Z,21.86
2019-05-11T14:35:18.962Z,21.77
2019-05-11T14:37:48.840Z,21.77
2019-05-11T14:40:18.400Z,21.69
2019-05-11T14:42:48.942Z,21.63
2019-05-11T14:45:18.976Z,21.54
2019-05-11T14:47:48.545Z,21.58
2019-05-11T14:50:19.003Z,21.56
2019-05-11T14:52:49.142Z,21.61
2019-05-11T14:55:18.756Z,21.74
2019-05-11T14:57:48.786Z,21.62
2019-05-11T15:00:18.772Z,21.55
2019-05-11T15:02:49.545Z,21.55
2019-05-11T15:05:20.377Z,21.57
2019-05-11T15:07:52.415Z,21.54
2019-05-11T15:10:21.123Z,21.50
2019-05-11T15:12:50.471Z,21.48
2019-05-11T15:15:20.040Z,21.51
2019-05-11T15:17:49.599Z,21.40
2019-05-11T15:20:19.811Z,21.39
2019-05-11T15:22:49.283Z,21.39
2019-05-11T15:25:20.084Z,21.23
2019-05-11T15:27:49.478Z,21.13
2019-05-11T15:30:19.229Z,21.14
2019-05-11T15:32:48.632Z,21.17
2019-05-11T15:35:18.792Z,21.18
2019-05-11T15:37:48.477Z,21.18
2019-05-11T15:40:19.904Z,21.10
2019-05-11T15:42:49.247Z,21.08
2019-05-11T15:45:19.314Z,21.11
2019-05-11T15:47:49.113Z,21.20
2019-05-11T15:50:19.591Z,21.29
2019-05-11T15:52:49.226Z,21.36
2019-05-11T15:55:19.459Z,21.42
2019-05-11T15:57:49.007Z,21.41
2019-05-11T16:00:18.985Z,21.36
2019-05-11T16:02:48.934Z,21.37
2019-05-11T16:05:19.023Z,21.40
2019-05-11T16:07:49.262Z,21.37
2019-05-11T16:10:19.109Z,21.32
2019-05-11T16:12:48.989Z,21.30
2019-05-11T16:15:19.544Z,21.27
2019-05-11T16:17:49.440Z,21.28
2019-05-11T16:20:19.286Z,21.29
2019-05-11T16:22:48.648Z,21.25
2019-05-11T16:25:19.649Z,21.30
2019-05-11T16:27:49.310Z,21.29
2019-05-11T16:30:21.491Z,21.21
2019-05-11T16:32:49.881Z,21.12
2019-05-11T16:35:19.543Z,21.01
2019-05-11T16:37:49.038Z,20.97
2019-05-11T16:40:20.913Z,20.99
2019-05-11T16:42:49.930Z,20.99
2019-05-11T16:45:19.608Z,20.90
2019-05-11T16:47:49.065Z,20.77
2019-05-11T16:50:18.577Z,20.62
2019-05-11T16:52:48.480Z,20.55
2019-05-11T16:55:18.624Z,20.51
2019-05-11T16:57:48.807Z,20.53
2019-05-11T17:00:19.057Z,20.47
2019-05-11T17:02:49.232Z,20.37
2019-05-11T17:05:26.575Z,20.22
2019-05-11T17:07:50.137Z,20.12
2019-05-11T17:10:19.490Z,20.03
2019-05-11T17:12:49.096Z,19.90
2019-05-11T17:15:19.064Z,19.87
2019-05-11T17:17:49.026Z,19.84
2019-05-11T17:20:19.159Z,19.83
2019-05-11T17:22:48.804Z,19.83
2019-05-11T17:25:19.309Z,19.79
2019-05-11T17:27:49.192Z,19.76
2019-05-11T17:30:19.843Z,19.70
2019-05-11T17:32:49.823Z,19.66
2019-05-11T17:35:19.542Z,19.63
2019-05-11T17:37:49.039Z,19.53
2019-05-11T17:40:23.171Z,19.46
2019-05-11T17:42:54.147Z,18.07
2019-05-11T17:45:23.796Z,18.98
2019-05-11T17:47:53.150Z,19.31
2019-05-11T17:50:25.575Z,19.25
2019-05-11T17:52:55.297Z,19.18
2019-05-11T17:55:25.204Z,19.09
2019-05-11T17:57:58.328Z,18.93
2019-05-11T18:00:28.479Z,18.73
2019-05-11T18:02:58.414Z,18.65
2019-05-11T18:05:27.786Z,18.59
2019-05-11T18:07:57.998Z,18.47
2019-05-11T18:10:28.277Z,18.38
2019-05-11T18:12:57.955Z,18.31
2019-05-11T18:15:27.248Z,18.24
2019-05-11T18:17:58.779Z,18.14
2019-05-11T18:20:28.642Z,18.07
2019-05-11T18:22:58.266Z,18.00
2019-05-11T18:25:28.679Z,17.93
2019-05-11T18:27:58.312Z,17.87
2019-05-11T18:30:29.291Z,17.78
2019-05-11T18:32:59.696Z,17.61
2019-05-11T18:35:29.031Z,17.53
2019-05-11T18:37:58.350Z,17.46
2019-05-11T18:40:28.669Z,17.37
2019-05-11T18:42:58.318Z,17.29
2019-05-11T18:45:28.794Z,17.14
2019-05-11T18:47:58.197Z,16.97
2019-05-11T18:50:31.024Z,16.83
2019-05-11T18:52:58.757Z,16.64
2019-05-11T18:55:28.425Z,16.48
2019-05-11T18:57:58.158Z,16.28
2019-05-11T19:00:27.765Z,16.23
2019-05-11T19:02:57.989Z,16.16
2019-05-11T19:05:29.148Z,16.17
2019-05-11T19:07:58.715Z,16.20
2019-05-11T19:10:28.053Z,16.20
2019-05-11T19:12:58.923Z,16.19
2019-05-11T19:15:28.411Z,16.13
2019-05-11T19:17:58.240Z,16.07
2019-05-11T19:20:28.534Z,16.01
2019-05-11T19:22:58.984Z,15.93
2019-05-11T19:25:28.545Z,15.88
2019-05-11T19:27:58.929Z,15.80
2019-05-11T19:30:28.554Z,15.83
2019-05-11T19:32:59.011Z,15.82
2019-05-11T19:35:28.810Z,15.79
2019-05-11T19:37:58.761Z,15.75
2019-05-11T19:40:28.168Z,15.70
2019-05-11T19:42:59.162Z,15.72
2019-05-11T19:45:29.599Z,15.82
2019-05-11T19:47:59.110Z,15.80
2019-05-11T19:50:28.479Z,15.67
2019-05-11T19:52:58.120Z,15.57
2019-05-11T19:55:28.531Z,15.51
2019-05-11T19:57:58.042Z,15.36
2019-05-11T20:00:27.655Z,15.23
2019-05-11T20:02:58.510Z,15.08
2019-05-11T20:05:28.779Z,15.14
2019-05-11T20:07:58.903Z,15.15
2019-05-11T20:10:28.369Z,15.09
2019-05-11T20:12:58.804Z,15.04
2019-05-11T20:15:28.328Z,15.03
2019-05-11T20:17:58.686Z,14.87
2019-05-11T20:20:28.507Z,14.75
2019-05-11T20:22:58.574Z,14.73
2019-05-11T20:25:28.848Z,14.74
2019-05-11T20:27:58.729Z,14.69
2019-05-11T20:30:28.073Z,14.64
2019-05-11T20:32:57.421Z,14.54
2019-05-11T20:35:27.997Z,14.49
2019-05-11T20:37:58.088Z,14.44
2019-05-11T20:40:28.619Z,14.41
2019-05-11T20:42:58.684Z,14.44
2019-05-11T20:45:28.648Z,14.44
2019-05-11T20:47:58.096Z,14.54
2019-05-11T20:50:27.432Z,14.42
2019-05-11T20:52:58.246Z,14.37
2019-05-11T20:55:28.462Z,14.31
2019-05-11T20:57:58.481Z,14.31
2019-05-11T21:00:28.140Z,14.25
2019-05-11T21:02:58.801Z,14.20
2019-05-11T21:05:28.544Z,14.10
2019-05-11T21:07:58.023Z,14.03
2019-05-11T21:10:28.162Z,14.02
2019-05-11T21:12:57.951Z,14.01
2019-05-11T21:15:28.130Z,14.00
2019-05-11T21:17:58.739Z,13.98
2019-05-11T21:20:28.741Z,13.97
2019-05-11T21:22:58.374Z,13.86
2019-05-11T21:25:28.771Z,13.67
2019-05-11T21:27:58.436Z,13.56
2019-05-11T21:30:27.961Z,13.59
2019-05-11T21:32:58.257Z,13.62
2019-05-11T21:35:28.189Z,13.60
2019-05-11T21:37:58.151Z,13.56
2019-05-11T21:40:28.974Z,13.61
2019-05-11T21:42:58.582Z,13.59
2019-05-11T21:45:28.361Z,13.70
2019-05-11T21:47:58.209Z,13.81
2019-05-11T21:50:27.992Z,13.97
2019-05-11T21:52:58.955Z,13.89
2019-05-11T21:55:29.327Z,13.81
2019-05-11T21:57:58.932Z,13.70
2019-05-11T22:00:30.735Z,13.63
2019-05-11T22:03:00.121Z,13.54
2019-05-11T22:05:29.544Z,13.51
2019-05-11T22:07:58.869Z,13.44
2019-05-11T22:10:28.495Z,13.38
2019-05-11T22:12:57.864Z,13.34
2019-05-11T22:15:28.417Z,13.30
2019-05-11T22:17:58.520Z,13.24
2019-05-11T22:20:28.771Z,13.17
2019-05-11T22:22:58.437Z,13.06
2019-05-11T22:25:28.749Z,13.00
2019-05-11T22:27:58.351Z,12.93
2019-05-11T22:30:27.961Z,12.91
2019-05-11T22:32:58.391Z,12.77
2019-05-11T22:35:28.596Z,12.75
2019-05-11T22:37:58.201Z,12.76
2019-05-11T22:40:28.185Z,12.75
2019-05-11T22:43:00.829Z,12.72
2019-05-11T22:45:28.683Z,12.73
2019-05-11T22:47:58.593Z,12.72
2019-05-11T22:50:29.138Z,12.76
2019-05-11T22:52:58.744Z,12.76
2019-05-11T22:55:28.157Z,12.73
2019-05-11T22:57:58.012Z,12.67
2019-05-11T23:00:42.124Z,12.57
2019-05-11T23:03:11.429Z,12.58
2019-05-11T23:05:41.460Z,12.55
2019-05-11T23:08:11.007Z,12.55
2019-05-11T23:10:40.345Z,12.55
2019-05-11T23:13:11.245Z,12.49
2019-05-11T23:15:40.928Z,12.45
2019-05-11T23:18:10.296Z,12.44
2019-05-11T23:20:39.648Z,12.46
2019-05-11T23:23:09.350Z,12.47
2019-05-11T23:25:38.699Z,12.47
2019-05-11T23:28:08.122Z,12.45
2019-05-11T23:30:38.858Z,12.47
2019-05-11T23:33:08.536Z,12.49
2019-05-11T23:35:38.395Z,12.43
2019-05-11T23:38:07.906Z,12.41
2019-05-11T23:40:37.921Z,12.39
2019-05-11T23:43:08.585Z,12.34
2019-05-11T23:45:38.413Z,12.26
2019-05-11T23:48:07.983Z,12.24
2019-05-11T23:50:38.611Z,12.24
2019-05-11T23:53:10.199Z,12.30
2019-05-11T23:55:39.266Z,12.27
2019-05-11T23:58:08.644Z,12.33
